Time;durP1;ratioP1;P1;durP2;ratioP2;P2;SDS_P1;SDS_P2;PMS_P1;PMS_P2;Temp;Humidity;BMP_temperature;BMP_pressure;BME280_temperature;BME280_humidity;BME280_pressure;Samples;Min_cycle;Max_cycle;Signal;HPM_P1;HPM_P2
2023/04/20 00:00:13;;;;;;;;;;;9.50;62.10;;;;;;5018133;28;19963;-71
2023/04/20 00:02:39;;;;;;;;;;;9.40;62.20;;;;;;5049301;28;19967;-72
2023/04/20 00:05:06;;;;;;;;;;;9.40;61.70;;;;;;5015474;28;19948;-72
2023/04/20 00:07:32;;;;;;;;;;;9.40;61.90;;;;;;5016968;28;20000;-72
2023/04/20 00:09:57;;;;;;;;;;;9.40;62.10;;;;;;5014302;28;20019;-72
2023/04/20 00:12:24;;;;;;;;;;;9.40;62.40;;;;;;5015944;28;20421;-72
2023/04/20 00:14:52;;;;;;;;;;;9.40;62.70;;;;;;5017168;28;19915;-71
2023/04/20 00:17:18;;;;;;;;;;;9.40;62.30;;;;;;5018325;28;19923;-71
2023/04/20 00:19:43;;;;;;;;;;;9.40;62.60;;;;;;5014340;28;19908;-71
2023/04/20 00:22:09;;;;;;;;;;;9.40;62.80;;;;;;5002355;28;19944;-72
2023/04/20 00:24:35;;;;;;;;;;;9.40;63.10;;;;;;5017713;28;19948;-72
2023/04/20 00:27:00;;;;;;;;;;;9.40;63.30;;;;;;5016488;28;20266;-73
2023/04/20 00:29:27;;;;;;;;;;;9.30;63.60;;;;;;5014777;28;19921;-73
2023/04/20 00:31:52;;;;;;;;;;;9.30;66.20;;;;;;5016116;28;20392;-71
2023/04/20 00:34:18;;;;;;;;;;;9.10;66.50;;;;;;5017998;28;19909;-72
2023/04/20 00:36:45;;;;;;;;;;;9.10;67.70;;;;;;5013313;28;20271;-72
2023/04/20 00:39:10;;;;;;;;;;;9.10;70.30;;;;;;5016393;28;19909;-73
2023/04/20 00:41:36;;;;;;;;;;;9.10;69.60;;;;;;5016156;28;20008;-71
2023/04/20 00:44:02;;;;;;;;;;;9.00;70.50;;;;;;5017069;28;19920;-72
2023/04/20 00:46:28;;;;;;;;;;;8.90;71.60;;;;;;5013704;28;19967;-71
2023/04/20 00:48:53;;;;;;;;;;;8.80;72.80;;;;;;5014526;28;19920;-73
2023/04/20 00:51:20;;;;;;;;;;;8.80;74.00;;;;;;5015989;28;20293;-71
2023/04/20 00:53:46;;;;;;;;;;;8.80;75.30;;;;;;5001415;28;19917;-74
2023/04/20 00:56:15;;;;;;;;;;;8.70;76.20;;;;;;5017850;28;20320;-71
2023/04/20 00:58:41;;;;;;;;;;;8.70;76.20;;;;;;5016698;28;19916;-71
2023/04/20 01:01:07;;;;;;;;;;;8.70;77.20;;;;;;5029162;28;20065;-71
2023/04/20 01:03:33;;;;;;;;;;;8.70;79.30;;;;;;5025851;28;20389;-72
2023/04/20 01:05:59;;;;;;;;;;;8.60;81.70;;;;;;5026720;28;19909;-73
2023/04/20 01:08:26;;;;;;;;;;;8.60;82.70;;;;;;5026032;28;19919;-71
2023/04/20 01:10:52;;;;;;;;;;;8.50;83.50;;;;;;5029488;28;19944;-71
2023/04/20 01:13:18;;;;;;;;;;;8.50;85.90;;;;;;5022804;28;20052;-71
2023/04/20 01:15:43;;;;;;;;;;;8.50;85.40;;;;;;5017264;28;19913;-71
2023/04/20 01:18:09;;;;;;;;;;;8.50;86.20;;;;;;5014462;28;19955;-72
2023/04/20 01:20:36;;;;;;;;;;;8.60;86.60;;;;;;5014431;28;19988;-71
2023/04/20 01:23:03;;;;;;;;;;;8.60;85.70;;;;;;5016138;28;20011;-71
2023/04/20 01:25:29;;;;;;;;;;;8.60;85.90;;;;;;5014807;28;19910;-71
2023/04/20 01:27:54;;;;;;;;;;;8.70;85.60;;;;;;5017693;28;19913;-74
2023/04/20 01:30:22;;;;;;;;;;;8.60;86.70;;;;;;5018253;28;19917;-73
2023/04/20 01:32:48;;;;;;;;;;;8.60;88.30;;;;;;5013399;28;19913;-72
2023/04/20 01:35:14;;;;;;;;;;;8.60;89.50;;;;;;5043914;28;19913;-72
2023/04/20 01:37:41;;;;;;;;;;;8.60;90.30;;;;;;5013383;28;19952;-72
2023/04/20 01:40:08;;;;;;;;;;;8.40;90.40;;;;;;5015867;28;19956;-75
2023/04/20 01:42:34;;;;;;;;;;;8.40;91.40;;;;;;5014391;28;19913;-73
2023/04/20 01:44:59;;;;;;;;;;;8.40;92.40;;;;;;5014848;28;19931;-74
2023/04/20 01:47:25;;;;;;;;;;;8.30;93.30;;;;;;5010182;28;19920;-81
2023/04/20 01:49:51;;;;;;;;;;;8.30;94.70;;;;;;5013284;28;19917;-71
2023/04/20 01:52:16;;;;;;;;;;;8.30;95.80;;;;;;5009015;28;19967;-72
2023/04/20 01:54:42;;;;;;;;;;;8.30;97.00;;;;;;5017300;28;19909;-73
2023/04/20 01:57:07;;;;;;;;;;;8.20;97.80;;;;;;5014559;28;20312;-71
2023/04/20 01:59:33;;;;;;;;;;;8.10;98.70;;;;;;5012305;28;19920;-72
2023/04/20 02:01:58;;;;;;;;;;;8.10;99.70;;;;;;5013953;28;19913;-72
2023/04/20 02:04:24;;;;;;;;;;;8.10;99.90;;;;;;5013383;28;19917;-71
2023/04/20 02:06:50;;;;;;;;;;;8.10;99.90;;;;;;5044715;28;20341;-71
2023/04/20 02:09:15;;;;;;;;;;;8.10;99.90;;;;;;5015856;28;19912;-71
2023/04/20 02:11:41;;;;;;;;;;;8.10;99.90;;;;;;5015842;28;20000;-72
2023/04/20 02:14:06;;;;;;;;;;;8.00;99.90;;;;;;5016972;28;19909;-76
2023/04/20 02:16:32;;;;;;;;;;;8.00;99.90;;;;;;5013528;28;20400;-71
2023/04/20 02:19:01;;;;;;;;;;;8.00;99.90;;;;;;5013356;28;19909;-70
2023/04/20 02:21:27;;;;;;;;;;;8.10;99.90;;;;;;5016451;28;19928;-71
2023/04/20 02:23:53;;;;;;;;;;;8.10;99.90;;;;;;5018700;28;19917;-75
2023/04/20 02:26:19;;;;;;;;;;;8.20;99.90;;;;;;5015986;28;19910;-70
2023/04/20 02:28:44;;;;;;;;;;;8.10;99.90;;;;;;5017249;28;19916;-70
2023/04/20 02:31:10;;;;;;;;;;;8.10;99.90;;;;;;4997731;28;19959;-71
2023/04/20 02:33:36;;;;;;;;;;;8.00;99.90;;;;;;5014174;28;19983;-72
2023/04/20 02:36:02;;;;;;;;;;;8.10;99.90;;;;;;4996506;28;20272;-71
2023/04/20 02:38:28;;;;;;;;;;;8.10;99.90;;;;;;5013793;28;20278;-72
2023/04/20 02:40:53;;;;;;;;;;;8.10;99.90;;;;;;5017093;28;19924;-71
2023/04/20 02:43:19;;;;;;;;;;;8.00;99.90;;;;;;5016832;28;20432;-70
2023/04/20 02:45:45;;;;;;;;;;;8.10;99.90;;;;;;5014339;28;19971;-72
2023/04/20 02:48:10;;;;;;;;;;;8.10;99.90;;;;;;5020255;28;19913;-71
2023/04/20 02:50:37;;;;;;;;;;;8.10;99.90;;;;;;5016708;28;19914;-73
2023/04/20 02:53:03;;;;;;;;;;;8.00;99.90;;;;;;5019125;28;19920;-69
2023/04/20 02:55:29;;;;;;;;;;;8.00;99.90;;;;;;5017397;28;19909;-71
2023/04/20 02:57:55;;;;;;;;;;;8.10;99.90;;;;;;5004456;28;19948;-70
2023/04/20 03:00:20;;;;;;;;;;;8.00;99.90;;;;;;5017651;28;19916;-71
2023/04/20 03:02:46;;;;;;;;;;;8.00;99.90;;;;;;5021805;28;19924;-72
2023/04/20 03:05:12;;;;;;;;;;;8.10;99.90;;;;;;5020262;28;19909;-72
2023/04/20 03:07:38;;;;;;;;;;;8.10;99.90;;;;;;5019283;28;19909;-73
2023/04/20 03:10:06;;;;;;;;;;;8.00;99.90;;;;;;5022412;28;20032;-71
2023/04/20 03:12:32;;;;;;;;;;;8.00;99.90;;;;;;5004785;28;19920;-71
2023/04/20 03:14:57;;;;;;;;;;;8.00;99.90;;;;;;5013679;28;20415;-72
2023/04/20 03:17:23;;;;;;;;;;;7.90;99.90;;;;;;5014447;28;19948;-70
2023/04/20 03:19:49;;;;;;;;;;;7.90;99.90;;;;;;5017312;28;19983;-72
2023/04/20 03:22:18;;;;;;;;;;;7.80;99.90;;;;;;5023472;28;20842;-71
2023/04/20 03:24:44;;;;;;;;;;;7.80;99.90;;;;;;5023447;28;19910;-71
2023/04/20 03:27:10;;;;;;;;;;;7.80;99.90;;;;;;5020618;28;20343;-71
2023/04/20 03:29:35;;;;;;;;;;;7.80;99.90;;;;;;5035560;28;19909;-70
2023/04/20 03:32:01;;;;;;;;;;;7.80;99.90;;;;;;5016867;28;19909;-71
2023/04/20 03:34:26;;;;;;;;;;;7.80;99.90;;;;;;5016625;28;19920;-73
2023/04/20 03:36:52;;;;;;;;;;;7.80;99.90;;;;;;5020261;28;19909;-71
2023/04/20 03:39:17;;;;;;;;;;;7.70;99.90;;;;;;5020273;28;19913;-70
2023/04/20 03:41:43;;;;;;;;;;;7.60;99.90;;;;;;5020247;28;19952;-72
2023/04/20 03:44:09;;;;;;;;;;;7.60;99.90;;;;;;5020434;28;19917;-72
2023/04/20 03:46:35;;;;;;;;;;;7.50;99.90;;;;;;5014794;28;19921;-71
2023/04/20 03:49:01;;;;;;;;;;;7.50;99.90;;;;;;5021519;28;19920;-72
2023/04/20 03:51:27;;;;;;;;;;;7.40;99.90;;;;;;5016817;28;20039;-72
2023/04/20 03:53:52;;;;;;;;;;;7.40;99.90;;;;;;5023895;28;19909;-70
2023/04/20 03:56:18;;;;;;;;;;;7.30;99.90;;;;;;5019107;28;20003;-70
2023/04/20 03:58:44;;;;;;;;;;;7.30;99.90;;;;;;5019535;28;19945;-73
2023/04/20 04:01:11;;;;;;;;;;;7.30;99.90;;;;;;5020164;28;19913;-72
2023/04/20 04:03:37;;;;;;;;;;;7.20;99.90;;;;;;5018893;28;20317;-72
2023/04/20 04:06:03;;;;;;;;;;;7.10;99.90;;;;;;5015380;28;19920;-71
2023/04/20 04:08:28;;;;;;;;;;;7.20;99.90;;;;;;5019312;28;19917;-71
2023/04/20 04:10:54;;;;;;;;;;;7.20;99.90;;;;;;5020890;28;19917;-72
2023/04/20 04:13:20;;;;;;;;;;;7.20;99.90;;;;;;5023544;28;19919;-71
2023/04/20 04:15:45;;;;;;;;;;;7.20;99.90;;;;;;5016546;28;19955;-72
2023/04/20 04:18:11;;;;;;;;;;;7.10;99.90;;;;;;5019835;28;19909;-72
2023/04/20 04:20:37;;;;;;;;;;;7.00;99.90;;;;;;5018206;28;19920;-71
2023/04/20 04:23:02;;;;;;;;;;;7.00;99.90;;;;;;5018649;28;20396;-72
2023/04/20 04:25:28;;;;;;;;;;;7.10;99.90;;;;;;5005308;28;19914;-72
2023/04/20 04:27:54;;;;;;;;;;;7.10;99.90;;;;;;5017527;28;19914;-73
2023/04/20 04:30:20;;;;;;;;;;;7.00;99.90;;;;;;5015938;28;19944;-70
2023/04/20 04:32:45;;;;;;;;;;;7.00;99.90;;;;;;5014098;28;19917;-71
2023/04/20 04:35:12;;;;;;;;;;;7.00;99.90;;;;;;5021796;28;20000;-72
2023/04/20 04:37:38;;;;;;;;;;;6.80;99.90;;;;;;5019725;28;20284;-75
2023/04/20 04:40:06;;;;;;;;;;;6.90;99.90;;;;;;5013746;28;19914;-70
2023/04/20 04:42:33;;;;;;;;;;;6.90;99.90;;;;;;5017209;28;19994;-71
2023/04/20 04:45:00;;;;;;;;;;;6.80;99.90;;;;;;5020106;28;20004;-71
2023/04/20 04:47:28;;;;;;;;;;;6.80;99.90;;;;;;5019707;28;20196;-73
2023/04/20 04:49:54;;;;;;;;;;;6.90;99.90;;;;;;5016070;28;19944;-71
2023/04/20 04:52:21;;;;;;;;;;;6.90;99.90;;;;;;5016591;28;19944;-72
2023/04/20 04:54:48;;;;;;;;;;;6.90;99.90;;;;;;5017651;28;19916;-71
2023/04/20 04:57:13;;;;;;;;;;;6.80;99.90;;;;;;5017039;28;20370;-71
2023/04/20 04:59:39;;;;;;;;;;;6.90;99.90;;;;;;5012400;28;19920;-73
2023/04/20 05:02:08;;;;;;;;;;;6.90;99.90;;;;;;5015554;28;19913;-75
2023/04/20 05:04:34;;;;;;;;;;;6.90;99.90;;;;;;5014275;28;19936;-71
2023/04/20 05:06:59;;;;;;;;;;;6.90;99.90;;;;;;5015083;28;19913;-70
2023/04/20 05:09:32;;;;;;;;;;;6.80;99.90;;;;;;5017347;28;19913;-71
2023/04/20 05:12:02;;;;;;;;;;;6.80;99.90;;;;;;5009886;28;20337;-72
2023/04/20 05:14:31;;;;;;;;;;;6.90;99.90;;;;;;5010906;28;20639;-71
2023/04/20 05:16:57;;;;;;;;;;;6.90;99.90;;;;;;5011624;28;19913;-70
2023/04/20 05:19:23;;;;;;;;;;;7.00;99.90;;;;;;5000056;28;20297;-73
2023/04/20 05:21:48;;;;;;;;;;;7.00;99.90;;;;;;5011056;28;19912;-73
2023/04/20 05:24:14;;;;;;;;;;;7.10;99.90;;;;;;5030321;28;19913;-71
2023/04/20 05:26:44;;;;;;;;;;;7.00;99.90;;;;;;5014359;28;20376;-71
2023/04/20 05:29:09;;;;;;;;;;;7.10;99.90;;;;;;5020924;28;20372;-73
2023/04/20 05:31:35;;;;;;;;;;;7.10;99.90;;;;;;5016825;28;19910;-73
2023/04/20 05:34:01;;;;;;;;;;;7.10;99.90;;;;;;5014262;28;19909;-71
2023/04/20 05:36:28;;;;;;;;;;;7.10;99.90;;;;;;5016106;28;19996;-72
2023/04/20 05:38:54;;;;;;;;;;;7.10;99.90;;;;;;5018268;28;19963;-71
2023/04/20 05:41:25;;;;;;;;;;;7.10;99.90;;;;;;5013948;28;19917;-70
2023/04/20 05:43:53;;;;;;;;;;;7.00;99.90;;;;;;5013711;28;19918;-81
2023/04/20 05:46:19;;;;;;;;;;;7.00;99.90;;;;;;5008793;28;20004;-71
2023/04/20 05:48:45;;;;;;;;;;;7.00;99.90;;;;;;5016664;28;20048;-71
2023/04/20 05:51:11;;;;;;;;;;;7.00;99.90;;;;;;5011920;28;20059;-71
2023/04/20 05:53:38;;;;;;;;;;;7.00;99.90;;;;;;4996843;28;20372;-72
2023/04/20 05:56:03;;;;;;;;;;;6.90;99.90;;;;;;5011193;28;19955;-70
2023/04/20 05:58:31;;;;;;;;;;;7.00;99.90;;;;;;4999111;28;20474;-72
2023/04/20 06:00:56;;;;;;;;;;;6.90;99.90;;;;;;5008219;28;19924;-74
2023/04/20 06:03:22;;;;;;;;;;;6.90;99.90;;;;;;5015572;28;19917;-76
2023/04/20 06:05:48;;;;;;;;;;;6.90;99.90;;;;;;5007145;28;19913;-75
2023/04/20 06:08:13;;;;;;;;;;;6.90;99.90;;;;;;5011762;28;20000;-71
2023/04/20 06:10:39;;;;;;;;;;;6.80;99.90;;;;;;5014117;28;19960;-74
2023/04/20 06:13:05;;;;;;;;;;;6.80;99.90;;;;;;5006923;28;19956;-71
2023/04/20 06:15:30;;;;;;;;;;;6.80;99.90;;;;;;5014718;28;20032;-71
2023/04/20 06:17:56;;;;;;;;;;;6.70;99.90;;;;;;5019751;28;19913;-72
2023/04/20 06:20:22;;;;;;;;;;;6.80;99.90;;;;;;5021550;28;20431;-72
2023/04/20 06:22:47;;;;;;;;;;;6.80;99.90;;;;;;5021406;28;19935;-73
2023/04/20 06:25:14;;;;;;;;;;;6.90;99.90;;;;;;5018416;28;19925;-72
2023/04/20 06:27:40;;;;;;;;;;;6.90;99.90;;;;;;5017836;28;19999;-73
2023/04/20 06:30:06;;;;;;;;;;;6.80;99.90;;;;;;5013572;28;19948;-71
2023/04/20 06:32:32;;;;;;;;;;;6.90;99.90;;;;;;5007208;28;19956;-72
2023/04/20 06:34:58;;;;;;;;;;;6.80;99.90;;;;;;5016844;28;20272;-71
2023/04/20 06:37:24;;;;;;;;;;;6.80;99.90;;;;;;5015061;28;20293;-75
2023/04/20 06:39:53;;;;;;;;;;;6.90;99.90;;;;;;5015920;28;19908;-71
2023/04/20 06:42:19;;;;;;;;;;;6.90;99.90;;;;;;5016854;28;20026;-73
2023/04/20 06:44:45;;;;;;;;;;;7.00;99.90;;;;;;5020744;28;19956;-70
2023/04/20 06:47:11;;;;;;;;;;;7.00;99.90;;;;;;5016650;28;19914;-71
2023/04/20 06:49:38;;;;;;;;;;;7.00;99.90;;;;;;4996080;28;19971;-71
2023/04/20 06:52:04;;;;;;;;;;;7.10;99.90;;;;;;5021710;28;19928;-71
2023/04/20 06:54:30;;;;;;;;;;;7.10;99.90;;;;;;5022413;28;19960;-72
2023/04/20 06:56:55;;;;;;;;;;;7.00;99.90;;;;;;5019699;28;19918;-73
2023/04/20 06:59:21;;;;;;;;;;;7.00;99.90;;;;;;5020109;28;20365;-73
2023/04/20 07:01:47;;;;;;;;;;;7.10;99.90;;;;;;5016792;28;20385;-71
2023/04/20 07:04:12;;;;;;;;;;;7.00;99.90;;;;;;5017477;28;19917;-72
2023/04/20 07:06:38;;;;;;;;;;;7.00;99.90;;;;;;5018103;28;19956;-71
2023/04/20 07:09:03;;;;;;;;;;;6.90;99.90;;;;;;5018924;28;20435;-71
2023/04/20 07:11:29;;;;;;;;;;;7.00;99.90;;;;;;5019560;28;20004;-74
2023/04/20 07:13:55;;;;;;;;;;;7.00;99.90;;;;;;5020096;28;19916;-71
2023/04/20 07:16:21;;;;;;;;;;;6.90;99.90;;;;;;5023248;28;20385;-71
2023/04/20 07:18:46;;;;;;;;;;;7.00;99.90;;;;;;5035184;28;19908;-79
2023/04/20 07:21:14;;;;;;;;;;;7.00;99.90;;;;;;5038208;28;19941;-73
2023/04/20 07:23:40;;;;;;;;;;;7.00;99.90;;;;;;5018170;28;20364;-73
2023/04/20 07:26:06;;;;;;;;;;;7.10;99.90;;;;;;5009978;28;19916;-74
2023/04/20 07:28:32;;;;;;;;;;;7.00;99.90;;;;;;5010055;28;19913;-74
2023/04/20 07:30:58;;;;;;;;;;;7.00;99.90;;;;;;5025178;28;19967;-73
2023/04/20 07:33:24;;;;;;;;;;;7.00;99.90;;;;;;5018709;28;20635;-70
2023/04/20 07:35:50;;;;;;;;;;;7.00;99.90;;;;;;5020846;28;19909;-74
2023/04/20 07:38:15;;;;;;;;;;;7.00;99.90;;;;;;5019152;28;19967;-75
2023/04/20 07:40:41;;;;;;;;;;;7.00;99.90;;;;;;5020347;28;19909;-74
2023/04/20 07:43:07;;;;;;;;;;;7.00;99.90;;;;;;5017747;28;19916;-72
2023/04/20 07:45:32;;;;;;;;;;;7.00;99.90;;;;;;5021071;28;19940;-72
2023/04/20 07:48:00;;;;;;;;;;;7.00;99.90;;;;;;5017106;28;19956;-72
2023/04/20 07:50:25;;;;;;;;;;;7.00;99.90;;;;;;5019838;28;19917;-74
2023/04/20 07:52:51;;;;;;;;;;;6.90;99.90;;;;;;5019811;28;20329;-72
2023/04/20 07:55:17;;;;;;;;;;;6.90;99.90;;;;;;5016241;28;20300;-71
2023/04/20 07:57:42;;;;;;;;;;;7.00;99.90;;;;;;5017131;28;19909;-73
2023/04/20 08:00:09;;;;;;;;;;;7.00;99.90;;;;;;5013965;28;19912;-71
2023/04/20 08:02:34;;;;;;;;;;;7.00;99.90;;;;;;5018715;28;19936;-72
2023/04/20 08:05:03;;;;;;;;;;;7.00;99.90;;;;;;5018836;28;20353;-72
2023/04/20 08:07:29;;;;;;;;;;;6.90;99.90;;;;;;5052442;28;20004;-71
2023/04/20 08:09:55;;;;;;;;;;;7.00;99.90;;;;;;5019095;28;19996;-76
2023/04/20 08:12:21;;;;;;;;;;;7.00;99.90;;;;;;5051923;28;19940;-72
2023/04/20 08:14:47;;;;;;;;;;;7.00;99.90;;;;;;5017098;28;19913;-71
2023/04/20 08:17:12;;;;;;;;;;;6.90;99.90;;;;;;5016468;28;19976;-73
2023/04/20 08:19:38;;;;;;;;;;;6.90;99.90;;;;;;5019933;28;19913;-72
2023/04/20 08:22:04;;;;;;;;;;;6.90;99.90;;;;;;5016669;28;19909;-71
2023/04/20 08:24:29;;;;;;;;;;;6.90;99.90;;;;;;5016807;28;19913;-71
2023/04/20 08:26:55;;;;;;;;;;;6.90;99.90;;;;;;5016963;28;20285;-73
2023/04/20 08:29:21;;;;;;;;;;;6.90;99.90;;;;;;5000350;28;20008;-73
2023/04/20 08:31:46;;;;;;;;;;;6.90;99.90;;;;;;5019996;28;19913;-71
2023/04/20 08:34:12;;;;;;;;;;;6.90;99.90;;;;;;5014647;28;20384;-71
2023/04/20 08:36:38;;;;;;;;;;;6.90;99.90;;;;;;5017442;28;19974;-72
2023/04/20 08:39:08;;;;;;;;;;;6.90;99.90;;;;;;5016374;28;19909;-71
2023/04/20 08:41:34;;;;;;;;;;;6.90;99.90;;;;;;5016246;28;19996;-71
2023/04/20 08:44:00;;;;;;;;;;;6.90;99.90;;;;;;4999879;28;19928;-75
2023/04/20 08:46:25;;;;;;;;;;;7.00;99.90;;;;;;5018470;28;19920;-71
2023/04/20 08:48:52;;;;;;;;;;;6.90;99.90;;;;;;5029715;28;19948;-72
2023/04/20 08:51:17;;;;;;;;;;;6.90;99.90;;;;;;5018284;28;20277;-71
2023/04/20 08:53:43;;;;;;;;;;;7.00;99.90;;;;;;5019173;28;19913;-71
2023/04/20 08:56:09;;;;;;;;;;;7.10;99.90;;;;;;5011295;28;20004;-72
2023/04/20 08:58:37;;;;;;;;;;;7.10;99.90;;;;;;5016290;28;20016;-71
2023/04/20 09:01:03;;;;;;;;;;;7.20;99.90;;;;;;5016522;28;19996;-72
2023/04/20 09:03:32;;;;;;;;;;;7.20;99.90;;;;;;5017593;28;20012;-70
2023/04/20 09:05:58;;;;;;;;;;;7.20;99.90;;;;;;5015196;28;19909;-72
2023/04/20 09:08:34;;;;;;;;;;;7.20;99.90;;;;;;5018379;28;19916;-74
2023/04/20 09:10:59;;;;;;;;;;;7.20;99.90;;;;;;5019947;28;19920;-79
2023/04/20 09:13:25;;;;;;;;;;;7.40;99.90;;;;;;5014888;28;20361;-77
2023/04/20 09:15:51;;;;;;;;;;;7.50;99.90;;;;;;5018890;28;19960;-77
2023/04/20 09:18:17;;;;;;;;;;;7.60;99.90;;;;;;5020500;28;20357;-74
2023/04/20 09:20:43;;;;;;;;;;;7.60;99.90;;;;;;5017541;28;19913;-73
2023/04/20 09:23:11;;;;;;;;;;;7.60;99.90;;;;;;5016787;28;20286;-73
2023/04/20 09:25:39;;;;;;;;;;;7.60;99.90;;;;;;5014314;28;20342;-74
2023/04/20 09:28:05;;;;;;;;;;;7.70;99.90;;;;;;5017965;28;19909;-73
2023/04/20 09:30:41;;;;;;;;;;;7.70;99.90;;;;;;5019458;28;19931;-72
2023/04/20 09:33:07;;;;;;;;;;;7.70;99.90;;;;;;5017451;28;20389;-76
2023/04/20 09:35:33;;;;;;;;;;;7.70;99.90;;;;;;5017293;28;19937;-75
2023/04/20 09:37:59;;;;;;;;;;;7.70;99.90;;;;;;5014669;28;19916;-72
2023/04/20 09:40:25;;;;;;;;;;;7.70;99.90;;;;;;4999806;28;20285;-72
2023/04/20 09:42:52;;;;;;;;;;;7.70;99.90;;;;;;5015065;28;19913;-73
2023/04/20 09:45:17;;;;;;;;;;;7.60;99.90;;;;;;5020118;28;19939;-72
2023/04/20 09:47:43;;;;;;;;;;;7.60;99.90;;;;;;5016720;28;19913;-72
2023/04/20 09:50:10;;;;;;;;;;;7.60;99.90;;;;;;5017562;28;20288;-72
2023/04/20 09:52:36;;;;;;;;;;;7.60;99.90;;;;;;5016052;28;19932;-73
2023/04/20 09:55:03;;;;;;;;;;;7.60;99.90;;;;;;5015156;28;20269;-72
2023/04/20 09:57:30;;;;;;;;;;;7.80;99.90;;;;;;5016333;28;19920;-73
2023/04/20 09:59:58;;;;;;;;;;;7.90;99.90;;;;;;5016729;28;20028;-77
2023/04/20 10:02:24;;;;;;;;;;;8.10;99.90;;;;;;5016898;28;19921;-72
2023/04/20 10:04:53;;;;;;;;;;;8.40;99.90;;;;;;5017719;28;21184;-72
2023/04/20 10:07:22;;;;;;;;;;;8.40;99.90;;;;;;5017899;28;19909;-72
2023/04/20 10:09:48;;;;;;;;;;;8.60;99.90;;;;;;5010258;28;19959;-73
2023/04/20 10:12:14;;;;;;;;;;;8.70;99.90;;;;;;5015022;28;20007;-76
2023/04/20 10:14:39;;;;;;;;;;;8.90;99.90;;;;;;5016600;28;19909;-72
2023/04/20 10:17:06;;;;;;;;;;;9.00;99.90;;;;;;5019371;28;19916;-72
2023/04/20 10:19:41;;;;;;;;;;;8.90;99.90;;;;;;5018797;28;20590;-75
2023/04/20 10:22:08;;;;;;;;;;;8.90;99.90;;;;;;5012926;28;19965;-72
2023/04/20 10:24:34;;;;;;;;;;;9.00;99.90;;;;;;5016766;28;19931;-76
2023/04/20 10:27:01;;;;;;;;;;;9.00;99.90;;;;;;5014547;28;20495;-72
2023/04/20 10:29:27;;;;;;;;;;;8.90;99.90;;;;;;5016048;28;19928;-73
2023/04/20 10:31:56;;;;;;;;;;;8.90;99.90;;;;;;5018874;28;19909;-72
2023/04/20 10:34:28;;;;;;;;;;;8.90;99.90;;;;;;5017687;28;19920;-76
2023/04/20 10:36:54;;;;;;;;;;;9.00;99.90;;;;;;5015359;28;19909;-73
2023/04/20 10:39:21;;;;;;;;;;;9.00;99.90;;;;;;5017286;28;19929;-72
2023/04/20 10:41:54;;;;;;;;;;;9.10;99.90;;;;;;5014225;28;19913;-73
2023/04/20 10:44:20;;;;;;;;;;;9.10;99.90;;;;;;5014169;28;19917;-72
2023/04/20 10:46:50;;;;;;;;;;;9.10;99.90;;;;;;5045639;28;19916;-75
2023/04/20 10:49:16;;;;;;;;;;;9.20;99.90;;;;;;5046708;28;19999;-73
2023/04/20 10:51:48;;;;;;;;;;;9.10;99.90;;;;;;5014198;28;20350;-77
2023/04/20 10:54:14;;;;;;;;;;;9.10;99.90;;;;;;5031748;28;19920;-74
2023/04/20 10:56:41;;;;;;;;;;;9.20;99.90;;;;;;5017661;28;19909;-72
2023/04/20 10:59:07;;;;;;;;;;;9.30;99.90;;;;;;5016720;28;19913;-73
2023/04/20 11:01:33;;;;;;;;;;;9.50;99.90;;;;;;5017848;28;20374;-77
2023/04/20 11:03:58;;;;;;;;;;;9.60;99.90;;;;;;5019649;28;19919;-72
2023/04/20 11:06:24;;;;;;;;;;;9.50;99.90;;;;;;5018100;28;20051;-72
2023/04/20 11:08:50;;;;;;;;;;;9.50;99.90;;;;;;5019831;28;19920;-72
2023/04/20 11:11:28;;;;;;;;;;;9.50;99.90;;;;;;5020689;28;20051;-75
2023/04/20 11:14:07;;;;;;;;;;;9.50;99.90;;;;;;5014963;28;19909;-76
2023/04/20 11:16:33;;;;;;;;;;;9.30;99.90;;;;;;5017469;28;19909;-73
2023/04/20 11:18:59;;;;;;;;;;;9.10;99.90;;;;;;5016813;28;19913;-77
2023/04/20 11:21:34;;;;;;;;;;;9.60;99.90;;;;;;5020076;28;20281;-72
2023/04/20 11:23:59;;;;;;;;;;;9.40;99.90;;;;;;5021610;28;19924;-72
2023/04/20 11:26:34;;;;;;;;;;;9.30;99.90;;;;;;5019366;28;19909;-73
2023/04/20 11:28:59;;;;;;;;;;;9.50;99.90;;;;;;5015030;28;19913;-73
2023/04/20 11:31:26;;;;;;;;;;;9.60;99.90;;;;;;5020427;28;19909;-79
2023/04/20 11:33:53;;;;;;;;;;;9.40;99.90;;;;;;5018921;28;19966;-78
2023/04/20 11:36:19;;;;;;;;;;;9.40;99.90;;;;;;5015367;28;19912;-73
2023/04/20 11:38:45;;;;;;;;;;;9.40;99.90;;;;;;5016781;28;20124;-73
2023/04/20 11:41:10;;;;;;;;;;;9.50;99.90;;;;;;5019317;28;20082;-74
2023/04/20 11:43:36;;;;;;;;;;;9.50;99.90;;;;;;5021484;28;19980;-81
2023/04/20 11:46:02;;;;;;;;;;;9.60;99.90;;;;;;5017186;28;20228;-73
2023/04/20 11:48:30;;;;;;;;;;;9.40;99.90;;;;;;5021355;28;19909;-72
2023/04/20 11:50:56;;;;;;;;;;;9.30;99.90;;;;;;5016942;28;19909;-73
2023/04/20 11:53:22;;;;;;;;;;;10.00;99.90;;;;;;5016303;28;19916;-73
2023/04/20 11:55:48;;;;;;;;;;;9.80;99.90;;;;;;5021349;28;20511;-73
2023/04/20 11:58:13;;;;;;;;;;;9.70;99.90;;;;;;5018690;28;20157;-73
2023/04/20 12:00:39;;;;;;;;;;;9.70;99.90;;;;;;5014552;28;19991;-72
2023/04/20 12:03:05;;;;;;;;;;;9.60;99.90;;;;;;5016916;28;20547;-73
2023/04/20 12:05:30;;;;;;;;;;;9.50;99.90;;;;;;5017057;28;19917;-71
2023/04/20 12:07:56;;;;;;;;;;;9.50;99.90;;;;;;5012124;28;19918;-72
2023/04/20 12:10:22;;;;;;;;;;;9.60;99.90;;;;;;5016909;28;19939;-73
2023/04/20 12:12:47;;;;;;;;;;;9.30;99.90;;;;;;5017779;28;19913;-72
2023/04/20 12:15:13;;;;;;;;;;;9.20;99.90;;;;;;5022288;28;19920;-74
2023/04/20 12:17:39;;;;;;;;;;;9.20;99.90;;;;;;5018101;28;19910;-72
2023/04/20 12:20:08;;;;;;;;;;;9.00;99.90;;;;;;5016711;28;20433;-72
2023/04/20 12:22:34;;;;;;;;;;;9.00;99.90;;;;;;5016513;28;20031;-73
2023/04/20 12:24:59;;;;;;;;;;;9.00;99.90;;;;;;5018853;28;20027;-73
2023/04/20 12:27:25;;;;;;;;;;;8.90;99.90;;;;;;5001162;28;19917;-73
2023/04/20 12:29:51;;;;;;;;;;;8.90;99.90;;;;;;5018505;28;20008;-72
2023/04/20 12:32:16;;;;;;;;;;;8.90;99.90;;;;;;5000883;28;19913;-73
2023/04/20 12:34:42;;;;;;;;;;;8.80;99.90;;;;;;5044077;28;20008;-72
2023/04/20 12:37:08;;;;;;;;;;;8.80;99.90;;;;;;5019275;28;19943;-72
2023/04/20 12:39:33;;;;;;;;;;;9.20;99.90;;;;;;5016493;28;19936;-74
2023/04/20 12:41:59;;;;;;;;;;;9.00;99.90;;;;;;5019852;28;19932;-72
2023/04/20 12:44:24;;;;;;;;;;;9.00;99.90;;;;;;5018985;28;19924;-75
2023/04/20 12:46:50;;;;;;;;;;;9.00;99.90;;;;;;5004379;28;19917;-72
2023/04/20 12:49:16;;;;;;;;;;;9.00;99.90;;;;;;5017513;28;19916;-72
2023/04/20 12:51:42;;;;;;;;;;;9.10;99.90;;;;;;5019395;28;19912;-72
2023/04/20 12:54:08;;;;;;;;;;;9.10;99.90;;;;;;5017791;28;20354;-72
2023/04/20 12:56:34;;;;;;;;;;;9.20;99.90;;;;;;5016739;28;20000;-74
2023/04/20 12:59:00;;;;;;;;;;;9.40;99.90;;;;;;5016814;28;19915;-71
2023/04/20 13:01:25;;;;;;;;;;;9.40;99.90;;;;;;5016025;28;19917;-72
2023/04/20 13:03:51;;;;;;;;;;;9.70;99.90;;;;;;5019335;28;19987;-72
2023/04/20 13:06:17;;;;;;;;;;;10.00;99.90;;;;;;5018720;28;19912;-75
2023/04/20 13:08:42;;;;;;;;;;;10.30;99.90;;;;;;4999243;28;20007;-72
2023/04/20 13:11:14;;;;;;;;;;;10.20;99.90;;;;;;5016220;28;20019;-72
2023/04/20 13:13:40;;;;;;;;;;;10.10;99.90;;;;;;5018722;28;19917;-73
2023/04/20 13:16:05;;;;;;;;;;;10.30;99.90;;;;;;5016485;28;20353;-73
2023/04/20 13:18:31;;;;;;;;;;;10.30;99.90;;;;;;5017595;28;20293;-72
2023/04/20 13:20:56;;;;;;;;;;;10.50;99.90;;;;;;5016507;28;19966;-73
2023/04/20 13:23:22;;;;;;;;;;;10.40;99.90;;;;;;5015531;28;19912;-72
2023/04/20 13:25:48;;;;;;;;;;;10.40;99.90;;;;;;5017046;28;20210;-73
2023/04/20 13:28:13;;;;;;;;;;;10.50;99.90;;;;;;5014984;28;19952;-72
2023/04/20 13:30:39;;;;;;;;;;;10.50;99.90;;;;;;5017568;28;19920;-72
2023/04/20 13:33:05;;;;;;;;;;;10.40;99.90;;;;;;5016594;28;20346;-73
2023/04/20 13:35:31;;;;;;;;;;;10.40;99.90;;;;;;5017343;28;19981;-72
2023/04/20 13:37:57;;;;;;;;;;;10.30;99.90;;;;;;5016108;28;19917;-73
2023/04/20 13:40:23;;;;;;;;;;;10.20;99.90;;;;;;5019062;28;20299;-73
2023/04/20 13:42:48;;;;;;;;;;;10.10;99.90;;;;;;5017525;28;19913;-72
2023/04/20 13:45:14;;;;;;;;;;;10.20;99.90;;;;;;5018618;28;19909;-72
2023/04/20 13:47:39;;;;;;;;;;;10.30;99.90;;;;;;5018340;28;19909;-72
2023/04/20 13:50:05;;;;;;;;;;;10.10;99.90;;;;;;5013121;28;19925;-72
2023/04/20 13:52:31;;;;;;;;;;;10.20;99.90;;;;;;5019255;28;20276;-72
2023/04/20 13:54:57;;;;;;;;;;;10.20;99.90;;;;;;5015352;28;19913;-72
2023/04/20 13:57:23;;;;;;;;;;;10.20;99.90;;;;;;5017834;28;19972;-74
2023/04/20 13:59:48;;;;;;;;;;;10.30;99.90;;;;;;5017155;28;19937;-72
2023/04/20 14:02:14;;;;;;;;;;;10.40;99.90;;;;;;5016058;28;19952;-72
2023/04/20 14:04:40;;;;;;;;;;;10.40;99.90;;;;;;5015270;28;19925;-74
2023/04/20 14:07:05;;;;;;;;;;;10.50;99.90;;;;;;5015133;28;19913;-71
2023/04/20 14:09:31;;;;;;;;;;;10.60;99.90;;;;;;5012696;28;19936;-72
2023/04/20 14:11:57;;;;;;;;;;;10.60;99.90;;;;;;5014504;28;19921;-73
2023/04/20 14:14:23;;;;;;;;;;;10.70;99.90;;;;;;5008174;28;19915;-75
2023/04/20 14:16:49;;;;;;;;;;;10.70;99.90;;;;;;5031810;28;20007;-72
2023/04/20 14:19:15;;;;;;;;;;;10.60;99.90;;;;;;5011810;28;19936;-72
2023/04/20 14:21:42;;;;;;;;;;;10.60;99.90;;;;;;5018945;28;19917;-75